createdAt,value
2022-11-20T00:01:33.858Z,0.70
2022-11-20T00:04:01.687Z,0.82
2022-11-20T00:06:29.957Z,0.19
2022-11-20T00:09:01.051Z,0.68
2022-11-20T00:11:32.344Z,0.84
2022-11-20T00:14:02.203Z,1.03
2022-11-20T00:16:32.944Z,0.80
2022-11-20T00:19:00.111Z,0.48
2022-11-20T00:21:35.525Z,0.93
2022-11-20T00:24:07.044Z,0.68
2022-11-20T00:26:34.158Z,0.47
2022-11-20T00:29:02.236Z,1.01
2022-11-20T00:31:31.259Z,0.92
2022-11-20T00:33:58.282Z,0.51
2022-11-20T00:36:29.361Z,0.38
2022-11-20T00:38:59.383Z,0.46
2022-11-20T00:41:28.961Z,0.60
2022-11-20T00:43:56.999Z,0.71
2022-11-20T00:46:27.951Z,0.74
2022-11-20T00:48:55.212Z,0.38
2022-11-20T00:51:25.952Z,0.70
2022-11-20T00:53:55.504Z,0.59
2022-11-20T00:56:22.522Z,0.52
2022-11-20T00:58:50.369Z,0.57
2022-11-20T01:01:26.500Z,0.58
2022-11-20T01:03:57.833Z,0.44
2022-11-20T01:06:27.392Z,0.60
2022-11-20T01:08:57.711Z,0.79
2022-11-20T01:11:28.488Z,0.91
2022-11-20T01:13:59.582Z,0.61
2022-11-20T01:16:37.895Z,0.58
2022-11-20T01:19:14.801Z,0.56
2022-11-20T01:21:47.083Z,0.64
2022-11-20T01:24:35.335Z,0.57
2022-11-20T01:27:02.331Z,0.52
2022-11-20T01:29:32.075Z,0.75
2022-11-20T01:31:59.241Z,0.43
2022-11-20T01:34:28.777Z,0.70
2022-11-20T01:36:55.891Z,0.30
2022-11-20T01:39:26.126Z,0.28
2022-11-20T01:42:31.099Z,0.60
2022-11-20T01:45:03.187Z,0.05
2022-11-20T01:47:48.059Z,0.37
2022-11-20T01:50:29.942Z,0.84
2022-11-20T01:53:07.155Z,0.65
2022-11-20T01:55:41.049Z,0.60
2022-11-20T01:58:08.452Z,0.50
2022-11-20T02:00:36.048Z,0.30
2022-11-20T02:03:10.014Z,0.83
2022-11-20T02:05:42.086Z,0.65
2022-11-20T02:08:09.199Z,0.51
2022-11-20T02:10:36.589Z,0.31
2022-11-20T02:13:22.982Z,0.31
2022-11-20T02:15:50.572Z,0.53
2022-11-20T02:18:20.543Z,0.42
2022-11-20T02:20:53.041Z,0.34
2022-11-20T02:23:40.530Z,0.08
2022-11-20T02:26:13.265Z,0.18
2022-11-20T02:28:40.494Z,0.12
2022-11-20T02:31:07.519Z,0.30
2022-11-20T02:33:37.032Z,0.36
2022-11-20T02:36:06.672Z,0.30
2022-11-20T02:38:36.203Z,0.41
2022-11-20T02:41:03.278Z,0.38
2022-11-20T02:43:30.267Z,0.09
2022-11-20T02:45:57.372Z,0.16
2022-11-20T02:48:30.211Z,0.49
2022-11-20T02:51:00.883Z,0.73
2022-11-20T02:53:27.958Z,0.77
2022-11-20T02:55:54.999Z,0.52
2022-11-20T02:58:24.976Z,0.77
2022-11-20T03:00:53.427Z,0.75
2022-11-20T03:03:21.002Z,0.90
2022-11-20T03:05:47.979Z,0.74
2022-11-20T03:08:14.999Z,0.58
2022-11-20T03:10:46.514Z,0.80
2022-11-20T03:13:13.566Z,0.41
2022-11-20T03:15:40.555Z,0.77
2022-11-20T03:18:07.620Z,1.06
2022-11-20T03:20:35.526Z,0.67
2022-11-20T03:23:05.328Z,1.00
2022-11-20T03:25:32.477Z,0.95
2022-11-20T03:27:59.456Z,1.22
2022-11-20T03:30:30.561Z,1.12
2022-11-20T03:33:00.816Z,0.80
2022-11-20T03:35:27.986Z,1.15
2022-11-20T03:37:55.047Z,1.28
2022-11-20T03:40:22.061Z,1.40
2022-11-20T03:42:49.191Z,0.51
2022-11-20T03:45:18.729Z,0.91
2022-11-20T03:47:48.481Z,0.59
2022-11-20T03:50:16.178Z,1.00
2022-11-20T03:52:43.732Z,1.25
2022-11-20T03:55:13.274Z,1.33
2022-11-20T03:57:40.386Z,0.80
2022-11-20T04:00:08.111Z,1.10
2022-11-20T04:02:35.298Z,1.02
2022-11-20T04:05:04.928Z,1.15
2022-11-20T04:07:32.439Z,0.85
2022-11-20T04:09:59.519Z,0.80
2022-11-20T04:12:26.514Z,1.21
2022-11-20T04:14:59.025Z,0.77
2022-11-20T04:17:26.045Z,1.23
2022-11-20T04:19:55.124Z,1.29
2022-11-20T04:22:27.202Z,0.44
2022-11-20T04:24:54.326Z,0.29
2022-11-20T04:27:21.619Z,0.48
2022-11-20T04:29:50.668Z,0.66
2022-11-20T04:32:20.258Z,0.86
2022-11-20T04:34:47.266Z,0.37
2022-11-20T04:37:14.255Z,0.52
2022-11-20T04:39:47.553Z,0.87
2022-11-20T04:42:29.919Z,0.99
2022-11-20T04:45:00.836Z,0.89
2022-11-20T04:47:27.840Z,0.95
2022-11-20T04:49:55.050Z,0.15
2022-11-20T04:52:22.040Z,0.60
2022-11-20T04:54:49.099Z,0.27
2022-11-20T04:57:18.660Z,0.45
2022-11-20T04:59:45.718Z,0.30
2022-11-20T05:02:13.266Z,0.45
2022-11-20T05:04:40.285Z,0.77
2022-11-20T05:07:07.324Z,0.77
2022-11-20T05:09:34.549Z,0.67
2022-11-20T05:12:01.551Z,0.98
2022-11-20T05:14:28.620Z,0.88
2022-11-20T05:16:55.717Z,0.80
2022-11-20T05:19:23.071Z,0.83
2022-11-20T05:21:50.291Z,0.82
2022-11-20T05:24:19.743Z,0.86
2022-11-20T05:26:46.817Z,0.52
2022-11-20T05:29:14.279Z,0.64
2022-11-20T05:31:42.511Z,0.81
2022-11-20T05:34:09.783Z,0.99
2022-11-20T05:36:36.791Z,0.46
2022-11-20T05:39:04.247Z,0.63
2022-11-20T05:41:31.442Z,0.58
2022-11-20T05:43:59.341Z,0.86
2022-11-20T05:46:29.008Z,0.58
2022-11-20T05:48:58.430Z,0.32
2022-11-20T05:51:26.347Z,0.69
2022-11-20T05:53:53.449Z,0.67
2022-11-20T05:56:22.827Z,0.52
2022-11-20T05:58:50.494Z,0.14
2022-11-20T06:01:25.531Z,0.38
2022-11-20T06:03:58.023Z,0.35
2022-11-20T06:06:27.043Z,0.42
2022-11-20T06:08:55.106Z,0.59
2022-11-20T06:11:22.614Z,0.46
2022-11-20T06:13:49.765Z,0.28
2022-11-20T06:16:20.409Z,0.13
2022-11-20T06:18:47.841Z,0.35
2022-11-20T06:21:18.812Z,0.50
2022-11-20T06:23:46.498Z,-0.12
2022-11-20T06:26:26.467Z,0.49
2022-11-20T06:28:54.704Z,0.46
2022-11-20T06:31:24.658Z,0.30
2022-11-20T06:33:52.222Z,0.60
2022-11-20T06:36:22.646Z,0.66
2022-11-20T06:38:50.079Z,0.43
2022-11-20T06:41:20.645Z,0.71
2022-11-20T06:43:48.271Z,0.55
2022-11-20T06:46:18.683Z,0.45
2022-11-20T06:48:46.574Z,0.49
2022-11-20T06:51:14.029Z,0.75
2022-11-20T06:53:41.314Z,0.97
2022-11-20T06:56:08.781Z,0.73
2022-11-20T06:58:37.163Z,0.88
2022-11-20T07:01:08.439Z,0.52
2022-11-20T07:03:35.679Z,0.48
2022-11-20T07:06:04.161Z,0.98
2022-11-20T07:08:35.053Z,0.69
2022-11-20T07:11:08.012Z,0.94
2022-11-20T07:13:35.619Z,0.85
2022-11-20T07:16:07.965Z,1.13
2022-11-20T07:18:35.264Z,0.86
2022-11-20T07:21:08.655Z,0.74
2022-11-20T07:23:42.364Z,1.07
2022-11-20T07:26:12.148Z,0.68
2022-11-20T07:28:39.604Z,0.92
2022-11-20T07:31:12.342Z,0.88
2022-11-20T07:33:41.629Z,0.87
2022-11-20T07:36:08.966Z,1.34
2022-11-20T07:38:36.050Z,1.41
2022-11-20T07:41:03.055Z,0.72
2022-11-20T07:43:30.304Z,1.26
2022-11-20T07:45:58.765Z,1.27
2022-11-20T07:48:26.820Z,1.38
2022-11-20T07:50:57.712Z,1.06
2022-11-20T07:53:25.258Z,0.86
2022-11-20T07:55:55.313Z,1.17
2022-11-20T07:58:23.052Z,1.09
2022-11-20T08:00:50.377Z,0.71
2022-11-20T08:03:24.596Z,1.43
2022-11-20T08:05:52.478Z,1.49
2022-11-20T08:08:19.692Z,1.46
2022-11-20T08:10:49.130Z,1.45
2022-11-20T08:13:34.944Z,1.31
2022-11-20T08:16:02.348Z,1.59
2022-11-20T08:18:31.883Z,1.62
2022-11-20T08:21:04.957Z,1.23
2022-11-20T08:23:32.056Z,1.70
2022-11-20T08:25:59.054Z,1.71
2022-11-20T08:28:26.026Z,1.61
2022-11-20T08:30:58.522Z,1.42
2022-11-20T08:33:25.545Z,1.33
2022-11-20T08:35:54.728Z,1.47
2022-11-20T08:38:21.742Z,1.96
2022-11-20T08:41:08.784Z,1.93
2022-11-20T08:43:35.781Z,1.55
2022-11-20T08:46:02.930Z,1.74
2022-11-20T08:48:30.039Z,1.59
2022-11-20T08:51:00.517Z,1.57
2022-11-20T08:53:28.860Z,1.34
2022-11-20T08:55:59.195Z,1.87
2022-11-20T08:58:27.159Z,1.47
2022-11-20T09:00:54.729Z,1.95
2022-11-20T09:03:21.791Z,1.79
2022-11-20T09:05:48.814Z,1.70
2022-11-20T09:08:16.010Z,1.34
2022-11-20T09:10:43.007Z,2.06
2022-11-20T09:13:10.124Z,2.04
2022-11-20T09:15:37.060Z,1.53
2022-11-20T09:18:07.518Z,1.71
2022-11-20T09:20:37.192Z,2.00
2022-11-20T09:23:04.234Z,1.57
2022-11-20T09:25:31.319Z,1.99
2022-11-20T09:28:01.196Z,2.14
2022-11-20T09:30:28.858Z,1.42
2022-11-20T09:32:55.995Z,1.52
2022-11-20T09:35:23.280Z,1.35
2022-11-20T09:37:50.531Z,1.19
2022-11-20T09:40:30.463Z,1.18
2022-11-20T09:43:36.340Z,1.35
2022-11-20T09:46:15.859Z,1.36
2022-11-20T09:49:37.873Z,1.20
2022-11-20T09:52:28.215Z,1.44
2022-11-20T09:54:58.836Z,1.14
2022-11-20T09:57:43.413Z,1.39
2022-11-20T10:00:17.996Z,1.37
2022-11-20T10:03:32.365Z,1.40
2022-11-20T10:06:04.675Z,1.49
2022-11-20T10:08:50.356Z,1.42
2022-11-20T10:11:45.552Z,1.61
2022-11-20T10:14:52.546Z,1.48
2022-11-20T10:18:04.301Z,1.44
2022-11-20T10:20:43.776Z,1.52
2022-11-20T10:23:57.816Z,1.43
2022-11-20T10:26:53.851Z,1.46
2022-11-20T10:29:36.362Z,1.43
2022-11-20T10:32:17.389Z,1.04
2022-11-20T10:34:58.389Z,1.46
2022-11-20T10:37:31.810Z,1.36
2022-11-20T10:40:52.253Z,1.37
2022-11-20T10:43:34.300Z,1.43
2022-11-20T10:46:13.467Z,1.70
2022-11-20T10:48:45.155Z,2.06
2022-11-20T10:51:46.478Z,1.55
2022-11-20T10:54:33.739Z,1.52
2022-11-20T10:57:32.471Z,1.08
2022-11-20T11:00:07.849Z,1.08
2022-11-20T11:02:50.514Z,1.17
2022-11-20T11:05:49.792Z,1.18
2022-11-20T11:08:20.294Z,0.91
2022-11-20T11:11:08.365Z,1.35
2022-11-20T11:13:35.331Z,1.17
2022-11-20T11:16:03.974Z,1.26
2022-11-20T11:18:37.232Z,1.72
2022-11-20T11:21:06.405Z,1.72
2022-11-20T11:23:41.091Z,1.79
2022-11-20T11:26:22.531Z,1.70
2022-11-20T11:29:19.008Z,1.86
2022-11-20T11:31:45.998Z,1.92
2022-11-20T11:34:16.465Z,1.74
2022-11-20T11:36:50.645Z,1.23
2022-11-20T11:39:22.489Z,1.47
2022-11-20T11:41:50.413Z,1.02
2022-11-20T11:44:50.987Z,1.03
2022-11-20T11:47:49.418Z,1.16
2022-11-20T11:50:17.655Z,1.19
2022-11-20T11:52:57.949Z,1.45
2022-11-20T11:55:43.532Z,1.20
2022-11-20T11:58:41.938Z,1.62
2022-11-20T12:01:30.814Z,1.64
2022-11-20T12:04:18.093Z,2.07
2022-11-20T12:06:53.651Z,1.79
2022-11-20T12:09:29.550Z,1.86
2022-11-20T12:12:40.148Z,1.82
2022-11-20T12:15:30.165Z,1.46
2022-11-20T12:17:59.748Z,1.40
2022-11-20T12:20:45.290Z,1.70
2022-11-20T12:23:51.479Z,1.19
2022-11-20T12:26:54.536Z,1.08
2022-11-20T12:29:52.166Z,1.19
2022-11-20T12:32:47.115Z,0.95
2022-11-20T12:35:33.469Z,1.39
2022-11-20T12:38:41.161Z,1.87
2022-11-20T12:41:39.679Z,1.65
2022-11-20T12:44:47.134Z,1.69
2022-11-20T12:47:34.806Z,1.37
2022-11-20T12:50:42.824Z,1.84
2022-11-20T12:53:21.494Z,1.27
2022-11-20T12:56:29.022Z,1.43
2022-11-20T12:59:24.986Z,1.62
2022-11-20T13:02:10.756Z,1.45
2022-11-20T13:04:37.692Z,1.59
2022-11-20T13:07:11.013Z,0.86
2022-11-20T13:09:47.981Z,1.15
2022-11-20T13:12:25.805Z,0.85
2022-11-20T13:15:18.861Z,1.55
2022-11-20T13:18:09.139Z,1.74
2022-11-20T13:20:41.937Z,1.73
2022-11-20T13:23:08.973Z,1.59
2022-11-20T13:25:39.831Z,1.79
2022-11-20T13:28:31.160Z,1.55
2022-11-20T13:30:59.746Z,1.76
2022-11-20T13:33:37.430Z,1.59
2022-11-20T13:36:22.566Z,1.86
2022-11-20T13:38:56.245Z,1.65
2022-11-20T13:41:28.951Z,1.95
2022-11-20T13:44:23.378Z,1.64
2022-11-20T13:46:50.470Z,1.82
2022-11-20T13:49:45.423Z,1.77
2022-11-20T13:52:49.442Z,1.77
2022-11-20T13:55:34.712Z,1.68
2022-11-20T13:58:29.508Z,1.17
2022-11-20T14:01:02.593Z,1.46
2022-11-20T14:06:32.616Z,1.58
2022-11-20T14:09:00.750Z,1.56
2022-11-20T14:11:32.426Z,1.69
2022-11-20T14:14:14.189Z,1.45
2022-11-20T14:16:41.365Z,1.48
2022-11-20T14:19:31.764Z,1.71
2022-11-20T14:22:19.195Z,1.50
2022-11-20T14:24:50.233Z,1.84
2022-11-20T14:27:22.341Z,1.57
2022-11-20T14:29:51.266Z,1.21
2022-11-20T14:32:31.544Z,1.34
2022-11-20T14:35:09.587Z,1.31
2022-11-20T14:37:40.791Z,1.27
2022-11-20T14:40:29.883Z,1.19
2022-11-20T14:42:59.153Z,1.40
2022-11-20T14:45:29.285Z,1.35
2022-11-20T14:47:59.385Z,1.28
2022-11-20T14:50:30.353Z,1.16
2022-11-20T14:53:02.403Z,1.08
2022-11-20T14:55:38.275Z,1.44
2022-11-20T14:58:29.187Z,1.44
2022-11-20T15:01:08.589Z,1.33
2022-11-20T15:03:42.037Z,1.10
2022-11-20T15:06:16.187Z,1.47
2022-11-20T15:08:53.151Z,0.92
2022-11-20T15:11:33.184Z,1.26
2022-11-20T15:14:07.056Z,1.37
2022-11-20T15:16:34.533Z,1.34
2022-11-20T15:19:04.563Z,1.40
2022-11-20T15:21:31.564Z,1.14
2022-11-20T15:23:59.378Z,1.23
2022-11-20T15:26:29.075Z,1.29
2022-11-20T15:28:56.161Z,1.46
2022-11-20T15:31:26.426Z,1.25
2022-11-20T15:33:53.498Z,1.38
2022-11-20T15:36:20.665Z,1.35
2022-11-20T15:38:47.643Z,0.94
2022-11-20T15:41:14.648Z,1.09
2022-11-20T15:43:41.639Z,0.90
2022-11-20T15:46:16.832Z,1.17
2022-11-20T15:48:53.135Z,1.10
2022-11-20T15:51:27.694Z,1.36
2022-11-20T15:53:57.098Z,0.78
2022-11-20T15:56:24.898Z,1.12
2022-11-20T15:58:51.882Z,0.90
2022-11-20T16:01:22.812Z,0.98
2022-11-20T16:03:50.249Z,0.84
2022-11-20T16:06:19.699Z,0.92
2022-11-20T16:08:49.230Z,0.65
2022-11-20T16:11:20.359Z,1.19
2022-11-20T16:14:06.252Z,0.73
2022-11-20T16:16:39.591Z,0.66
2022-11-20T16:19:06.586Z,0.60
2022-11-20T16:21:33.813Z,0.51
2022-11-20T16:24:07.356Z,0.68
2022-11-20T16:26:36.614Z,1.01
2022-11-20T16:29:06.223Z,0.66
2022-11-20T16:31:34.610Z,0.65
2022-11-20T16:34:23.407Z,0.98
2022-11-20T16:36:50.561Z,0.72
2022-11-20T16:39:23.969Z,0.62
2022-11-20T16:41:51.282Z,0.68
2022-11-20T16:44:18.282Z,0.96
2022-11-20T16:46:45.238Z,0.65
2022-11-20T16:49:14.535Z,0.76
2022-11-20T16:51:42.862Z,0.87
2022-11-20T16:54:10.817Z,0.60
2022-11-20T16:56:38.272Z,0.95
2022-11-20T16:59:05.911Z,0.79
2022-11-20T17:01:33.161Z,1.06
2022-11-20T17:04:03.353Z,0.84
2022-11-20T17:06:36.100Z,0.79
2022-11-20T17:09:06.105Z,0.64
2022-11-20T17:11:36.052Z,0.55
2022-11-20T17:14:07.501Z,0.89
2022-11-20T17:16:38.855Z,0.99
2022-11-20T17:19:05.988Z,0.96
2022-11-20T17:21:36.210Z,1.10
2022-11-20T17:24:06.662Z,0.74
2022-11-20T17:26:35.164Z,0.41
2022-11-20T17:29:06.995Z,0.80
2022-11-20T17:31:35.058Z,0.65
2022-11-20T17:34:02.621Z,0.67
2022-11-20T17:36:33.263Z,0.69
2022-11-20T17:39:00.715Z,0.62
2022-11-20T17:41:30.318Z,0.69
2022-11-20T17:44:00.441Z,0.74
2022-11-20T17:46:33.471Z,0.66
2022-11-20T17:49:02.128Z,0.60
2022-11-20T17:51:33.307Z,0.71
2022-11-20T17:54:05.311Z,0.77
2022-11-20T17:56:52.723Z,0.63
2022-11-20T17:59:22.645Z,0.88
2022-11-20T18:01:49.842Z,1.14
2022-11-20T18:04:17.328Z,0.67
2022-11-20T18:06:44.710Z,0.87
2022-11-20T18:09:12.427Z,0.79
2022-11-20T18:11:43.170Z,0.97
2022-11-20T18:14:32.562Z,1.09
2022-11-20T18:19:40.944Z,0.79
2022-11-20T18:22:13.768Z,0.55
2022-11-20T18:24:42.191Z,0.81
2022-11-20T18:27:20.707Z,1.04
2022-11-20T18:29:51.923Z,0.95
2022-11-20T18:32:22.848Z,0.77
2022-11-20T18:34:51.370Z,0.67
2022-11-20T18:37:19.071Z,0.65
2022-11-20T18:39:50.713Z,0.75
2022-11-20T18:42:36.719Z,0.82
2022-11-20T18:45:07.409Z,0.73
2022-11-20T18:47:40.081Z,0.91
2022-11-20T18:50:11.903Z,0.82
2022-11-20T18:52:44.558Z,0.51
2022-11-20T18:55:12.938Z,0.85
2022-11-20T18:57:40.134Z,0.64
2022-11-20T19:00:11.088Z,1.04
2022-11-20T19:02:42.251Z,1.02
2022-11-20T19:05:14.697Z,0.91
2022-11-20T19:07:42.727Z,0.90
2022-11-20T19:10:10.165Z,0.90
2022-11-20T19:12:37.218Z,1.09
2022-11-20T19:15:04.991Z,1.09
2022-11-20T19:17:33.907Z,1.01
2022-11-20T19:20:01.005Z,0.69
2022-11-20T19:22:28.196Z,0.59
2022-11-20T19:24:55.241Z,0.98
2022-11-20T19:27:22.289Z,0.79
2022-11-20T19:29:57.665Z,1.01
2022-11-20T19:32:25.542Z,0.66
2022-11-20T19:34:53.777Z,0.90
2022-11-20T19:37:20.821Z,0.80
2022-11-20T19:39:48.332Z,0.76
2022-11-20T19:42:15.563Z,0.63
2022-11-20T19:44:42.834Z,0.43
2022-11-20T19:47:14.210Z,0.83
2022-11-20T19:49:41.966Z,0.75
2022-11-20T19:52:09.431Z,0.63
2022-11-20T19:54:37.058Z,0.65
2022-11-20T19:57:04.033Z,0.87
2022-11-20T19:59:31.209Z,0.84
2022-11-20T20:01:58.396Z,0.74
2022-11-20T20:04:27.552Z,1.04
2022-11-20T20:06:54.656Z,0.76
2022-11-20T20:09:23.844Z,0.76
2022-11-20T20:11:50.997Z,0.54
2022-11-20T20:14:20.556Z,0.94
2022-11-20T20:16:47.803Z,0.88
2022-11-20T20:19:16.973Z,0.89
2022-11-20T20:21:44.674Z,0.80
2022-11-20T20:24:14.630Z,0.74
2022-11-20T20:26:42.211Z,0.91
2022-11-20T20:29:09.376Z,1.16
2022-11-20T20:31:36.451Z,1.18
2022-11-20T20:34:05.491Z,1.36
2022-11-20T20:36:32.641Z,1.12
2022-11-20T20:39:04.609Z,0.95
2022-11-20T20:41:32.268Z,0.83
2022-11-20T20:44:18.037Z,0.95
2022-11-20T20:46:45.195Z,0.89
2022-11-20T20:49:12.436Z,0.97
2022-11-20T20:51:39.457Z,1.13
2022-11-20T20:54:06.591Z,1.17
2022-11-20T20:56:33.630Z,0.86
2022-11-20T20:59:00.722Z,0.77
2022-11-20T21:01:28.892Z,1.03
2022-11-20T21:03:57.039Z,1.30
2022-11-20T21:06:24.558Z,1.27
2022-11-20T21:08:51.622Z,1.07
2022-11-20T21:11:20.296Z,1.17
2022-11-20T21:13:48.993Z,1.45
2022-11-20T21:16:18.176Z,0.99
2022-11-20T21:18:45.550Z,1.27
2022-11-20T21:21:32.706Z,1.17
2022-11-20T21:23:59.909Z,1.20
2022-11-20T21:26:27.312Z,0.99
2022-11-20T21:28:54.460Z,1.02
2022-11-20T21:31:27.359Z,0.81
2022-11-20T21:33:58.833Z,1.05
2022-11-20T21:36:29.048Z,1.10
2022-11-20T21:38:59.453Z,1.18
2022-11-20T21:41:30.441Z,0.96
2022-11-20T21:44:29.647Z,1.01
2022-11-20T21:46:48.708Z,0.54
2022-11-20T21:49:18.655Z,0.55
2022-11-20T21:51:45.668Z,0.58
2022-11-20T21:54:12.840Z,0.67
2022-11-20T21:56:40.028Z,0.35
2022-11-20T21:59:06.995Z,0.98
2022-11-20T22:01:34.077Z,0.90
2022-11-20T22:04:02.874Z,1.03
2022-11-20T22:06:36.538Z,1.06
2022-11-20T22:09:06.654Z,1.15
2022-11-20T22:11:33.725Z,1.26
2022-11-20T22:14:19.438Z,1.16
2022-11-20T22:16:47.266Z,1.02
2022-11-20T22:19:24.316Z,1.30
2022-11-20T22:21:51.317Z,0.95
2022-11-20T22:24:23.314Z,0.83
2022-11-20T22:26:53.410Z,0.94
2022-11-20T22:29:23.835Z,1.20
2022-11-20T22:31:53.994Z,0.96
2022-11-20T22:34:21.274Z,1.03
2022-11-20T22:36:48.526Z,0.78
2022-11-20T22:39:15.638Z,1.25
2022-11-20T22:41:42.671Z,1.15
2022-11-20T22:44:13.532Z,0.91
2022-11-20T22:46:40.601Z,1.08
2022-11-20T22:49:08.919Z,0.82
2022-11-20T22:51:39.362Z,0.47
2022-11-20T22:54:07.548Z,0.94
2022-11-20T22:56:35.212Z,0.82
2022-11-20T22:59:04.564Z,0.76
2022-11-20T23:01:37.923Z,0.83
2022-11-20T23:04:10.829Z,0.79
2022-11-20T23:07:00.414Z,0.64
2022-11-20T23:09:29.751Z,0.45
2022-11-20T23:11:56.710Z,0.72
2022-11-20T23:14:28.317Z,0.46
2022-11-20T23:16:55.395Z,-0.02
2022-11-20T23:19:22.712Z,0.25
2022-11-20T23:21:49.770Z,-0.11
2022-11-20T23:24:16.796Z,-0.06
2022-11-20T23:26:45.265Z,-0.13
2022-11-20T23:29:13.002Z,0.15
2022-11-20T23:31:43.447Z,0.36
2022-11-20T23:34:10.676Z,0.14
2022-11-20T23:36:37.665Z,0.11
2022-11-20T23:39:08.672Z,-0.05
2022-11-20T23:41:35.693Z,0.00
2022-11-20T23:44:02.772Z,-0.09
2022-11-20T23:46:29.761Z,0.18
2022-11-20T23:48:56.716Z,-0.17
2022-11-20T23:51:23.768Z,0.06
2022-11-20T23:53:50.820Z,-0.11
2022-11-20T23:56:17.826Z,-0.29
2022-11-20T23:58:44.887Z,-0.40
